sensor_id;sensor_type;location;lat;lon;timestamp;temperature;humidity
8591;DHT22;4333;48.322;14.340;2024-01-10T00:01:27;-3.80;60.30
8591;DHT22;4333;48.322;14.340;2024-01-10T00:03:54;-3.80;63.10
8591;DHT22;4333;48.322;14.340;2024-01-10T00:06:20;-3.70;63.30
8591;DHT22;4333;48.322;14.340;2024-01-10T00:08:46;-3.80;64.20
8591;DHT22;4333;48.322;14.340;2024-01-10T00:11:11;-3.80;65.70
8591;DHT22;4333;48.322;14.340;2024-01-10T00:13:37;-3.80;67.90
8591;DHT22;4333;48.322;14.340;2024-01-10T00:16:03;-3.80;68.90
8591;DHT22;4333;48.322;14.340;2024-01-10T00:18:31;-3.80;71.20
8591;DHT22;4333;48.322;14.340;2024-01-10T00:20:58;-3.80;72.40
8591;DHT22;4333;48.322;14.340;2024-01-10T00:23:23;-3.80;72.60
8591;DHT22;4333;48.322;14.340;2024-01-10T00:25:49;-3.80;73.20
8591;DHT22;4333;48.322;14.340;2024-01-10T00:28:15;-3.90;74.00
8591;DHT22;4333;48.322;14.340;2024-01-10T00:30:45;-3.90;74.20
8591;DHT22;4333;48.322;14.340;2024-01-10T00:33:13;-3.90;76.00
8591;DHT22;4333;48.322;14.340;2024-01-10T00:35:38;-4.00;76.80
8591;DHT22;4333;48.322;14.340;2024-01-10T00:38:04;-4.00;78.30
8591;DHT22;4333;48.322;14.340;2024-01-10T00:40:30;-4.00;79.50
8591;DHT22;4333;48.322;14.340;2024-01-10T00:42:56;-4.10;79.40
8591;DHT22;4333;48.322;14.340;2024-01-10T00:45:21;-4.10;79.50
8591;DHT22;4333;48.322;14.340;2024-01-10T00:47:48;-4.10;80.20
8591;DHT22;4333;48.322;14.340;2024-01-10T00:50:14;-4.10;79.50
8591;DHT22;4333;48.322;14.340;2024-01-10T00:52:40;-4.00;79.20
8591;DHT22;4333;48.322;14.340;2024-01-10T00:55:06;-4.00;76.50
8591;DHT22;4333;48.322;14.340;2024-01-10T00:57:31;-4.10;76.80
8591;DHT22;4333;48.322;14.340;2024-01-10T00:59:57;-4.10;76.80
8591;DHT22;4333;48.322;14.340;2024-01-10T01:02:25;-4.20;78.20
8591;DHT22;4333;48.322;14.340;2024-01-10T01:04:52;-4.20;78.70
8591;DHT22;4333;48.322;14.340;2024-01-10T01:07:19;-4.10;78.60
8591;DHT22;4333;48.322;14.340;2024-01-10T01:09:47;-4.20;79.00
8591;DHT22;4333;48.322;14.340;2024-01-10T01:12:12;-4.20;80.80
8591;DHT22;4333;48.322;14.340;2024-01-10T01:14:38;-4.20;82.60
8591;DHT22;4333;48.322;14.340;2024-01-10T01:17:04;-4.20;83.40
8591;DHT22;4333;48.322;14.340;2024-01-10T01:19:29;-4.20;86.30
8591;DHT22;4333;48.322;14.340;2024-01-10T01:21:55;-4.20;84.70
8591;DHT22;4333;48.322;14.340;2024-01-10T01:24:21;-4.20;86.00
8591;DHT22;4333;48.322;14.340;2024-01-10T01:26:46;-4.20;86.50
8591;DHT22;4333;48.322;14.340;2024-01-10T01:29:13;-4.20;87.00
8591;DHT22;4333;48.322;14.340;2024-01-10T01:31:38;-4.10;86.10
8591;DHT22;4333;48.322;14.340;2024-01-10T01:34:05;-4.20;86.10
8591;DHT22;4333;48.322;14.340;2024-01-10T01:36:30;-4.20;89.00
8591;DHT22;4333;48.322;14.340;2024-01-10T01:39:00;-4.30;88.50
8591;DHT22;4333;48.322;14.340;2024-01-10T01:41:27;-4.30;89.50
8591;DHT22;4333;48.322;14.340;2024-01-10T01:43:53;-4.40;90.30
8591;DHT22;4333;48.322;14.340;2024-01-10T01:46:19;-4.40;90.80
8591;DHT22;4333;48.322;14.340;2024-01-10T01:48:47;-4.40;91.60
8591;DHT22;4333;48.322;14.340;2024-01-10T01:51:14;-4.40;92.50
8591;DHT22;4333;48.322;14.340;2024-01-10T01:53:42;-4.40;93.30
8591;DHT22;4333;48.322;14.340;2024-01-10T01:56:10;-4.40;93.70
8591;DHT22;4333;48.322;14.340;2024-01-10T01:58:36;-4.30;92.60
8591;DHT22;4333;48.322;14.340;2024-01-10T02:01:04;-4.30;92.20
8591;DHT22;4333;48.322;14.340;2024-01-10T02:03:34;-4.30;92.50
8591;DHT22;4333;48.322;14.340;2024-01-10T02:06:00;-4.40;93.70
8591;DHT22;4333;48.322;14.340;2024-01-10T02:08:29;-4.50;95.80
8591;DHT22;4333;48.322;14.340;2024-01-10T02:10:56;-4.70;97.40
8591;DHT22;4333;48.322;14.340;2024-01-10T02:13:25;-4.70;98.70
8591;DHT22;4333;48.322;14.340;2024-01-10T02:15:51;-4.80;99.90
8591;DHT22;4333;48.322;14.340;2024-01-10T02:18:19;-4.90;99.90
8591;DHT22;4333;48.322;14.340;2024-01-10T02:20:45;-4.90;99.90
8591;DHT22;4333;48.322;14.340;2024-01-10T02:23:11;-4.90;99.90
8591;DHT22;4333;48.322;14.340;2024-01-10T02:25:40;-4.70;99.90
8591;DHT22;4333;48.322;14.340;2024-01-10T02:28:06;-4.80;99.90
8591;DHT22;4333;48.322;14.340;2024-01-10T02:30:33;-4.80;99.90
8591;DHT22;4333;48.322;14.340;2024-01-10T02:32:58;-4.80;99.90
8591;DHT22;4333;48.322;14.340;2024-01-10T02:35:24;-4.80;99.90
8591;DHT22;4333;48.322;14.340;2024-01-10T02:37:50;-4.80;99.90
8591;DHT22;4333;48.322;14.340;2024-01-10T02:40:17;-4.80;99.90
8591;DHT22;4333;48.322;14.340;2024-01-10T02:42:43;-4.70;99.90
8591;DHT22;4333;48.322;14.340;2024-01-10T02:45:09;-4.60;99.90
8591;DHT22;4333;48.322;14.340;2024-01-10T02:47:35;-4.70;99.90
8591;DHT22;4333;48.322;14.340;2024-01-10T02:50:03;-4.80;99.90
8591;DHT22;4333;48.322;14.340;2024-01-10T02:52:31;-4.80;99.90
8591;DHT22;4333;48.322;14.340;2024-01-10T02:54:56;-4.90;99.90
8591;DHT22;4333;48.322;14.340;2024-01-10T02:57:22;-4.90;99.90
8591;DHT22;4333;48.322;14.340;2024-01-10T02:59:50;-5.00;99.90
8591;DHT22;4333;48.322;14.340;2024-01-10T03:02:16;-5.10;99.90
8591;DHT22;4333;48.322;14.340;2024-01-10T03:04:42;-5.10;99.90
8591;DHT22;4333;48.322;14.340;2024-01-10T03:07:10;-5.10;99.90
8591;DHT22;4333;48.322;14.340;2024-01-10T03:09:36;-5.20;99.90
8591;DHT22;4333;48.322;14.340;2024-01-10T03:12:05;-5.20;99.90
8591;DHT22;4333;48.322;14.340;2024-01-10T03:14:33;-5.20;99.90
8591;DHT22;4333;48.322;14.340;2024-01-10T03:16:59;-5.20;99.90
8591;DHT22;4333;48.322;14.340;2024-01-10T03:19:25;-5.20;99.90
8591;DHT22;4333;48.322;14.340;2024-01-10T03:21:51;-5.20;99.90
8591;DHT22;4333;48.322;14.340;2024-01-10T03:24:17;-5.20;99.90
8591;DHT22;4333;48.322;14.340;2024-01-10T03:26:43;-5.20;99.90
8591;DHT22;4333;48.322;14.340;2024-01-10T03:29:12;-5.20;99.90
8591;DHT22;4333;48.322;14.340;2024-01-10T03:31:37;-5.30;99.90
8591;DHT22;4333;48.322;14.340;2024-01-10T03:34:03;-5.30;99.90
8591;DHT22;4333;48.322;14.340;2024-01-10T03:36:29;-5.30;99.90
8591;DHT22;4333;48.322;14.340;2024-01-10T03:38:55;-5.40;99.90
8591;DHT22;4333;48.322;14.340;2024-01-10T03:41:21;-5.50;99.90
8591;DHT22;4333;48.322;14.340;2024-01-10T03:43:47;-5.50;99.90
8591;DHT22;4333;48.322;14.340;2024-01-10T03:46:13;-5.40;99.90
8591;DHT22;4333;48.322;14.340;2024-01-10T03:48:43;-5.40;99.90
8591;DHT22;4333;48.322;14.340;2024-01-10T03:51:18;-5.40;99.90
8591;DHT22;4333;48.322;14.340;2024-01-10T03:53:46;-5.30;99.90
8591;DHT22;4333;48.322;14.340;2024-01-10T03:56:14;-5.40;99.90
8591;DHT22;4333;48.322;14.340;2024-01-10T03:58:40;-5.40;99.90
8591;DHT22;4333;48.322;14.340;2024-01-10T04:01:11;-5.30;99.90
8591;DHT22;4333;48.322;14.340;2024-01-10T04:03:36;-5.40;99.90
8591;DHT22;4333;48.322;14.340;2024-01-10T04:06:03;-5.40;99.90
8591;DHT22;4333;48.322;14.340;2024-01-10T04:08:29;-5.50;99.90
8591;DHT22;4333;48.322;14.340;2024-01-10T04:10:57;-5.50;99.90
8591;DHT22;4333;48.322;14.340;2024-01-10T04:13:23;-5.50;99.90
8591;DHT22;4333;48.322;14.340;2024-01-10T04:15:49;-5.40;99.90
8591;DHT22;4333;48.322;14.340;2024-01-10T04:18:14;-5.50;99.90
8591;DHT22;4333;48.322;14.340;2024-01-10T04:20:40;-5.50;99.90
8591;DHT22;4333;48.322;14.340;2024-01-10T04:23:07;-5.50;99.90
8591;DHT22;4333;48.322;14.340;2024-01-10T04:25:33;-5.50;99.90
8591;DHT22;4333;48.322;14.340;2024-01-10T04:27:59;-5.40;99.90
8591;DHT22;4333;48.322;14.340;2024-01-10T04:30:25;-5.40;99.90
8591;DHT22;4333;48.322;14.340;2024-01-10T04:32:52;-5.50;99.90
8591;DHT22;4333;48.322;14.340;2024-01-10T04:35:18;-5.60;99.90
8591;DHT22;4333;48.322;14.340;2024-01-10T04:37:47;-5.60;99.90
8591;DHT22;4333;48.322;14.340;2024-01-10T04:40:14;-5.60;99.90
8591;DHT22;4333;48.322;14.340;2024-01-10T04:42:40;-5.60;99.90
8591;DHT22;4333;48.322;14.340;2024-01-10T04:45:07;-5.60;99.90
8591;DHT22;4333;48.322;14.340;2024-01-10T04:47:33;-5.70;99.90
8591;DHT22;4333;48.322;14.340;2024-01-10T04:49:58;-5.70;99.90
8591;DHT22;4333;48.322;14.340;2024-01-10T04:52:27;-5.80;99.90
8591;DHT22;4333;48.322;14.340;2024-01-10T04:54:53;-5.80;99.90
8591;DHT22;4333;48.322;14.340;2024-01-10T04:57:18;-5.80;99.90
8591;DHT22;4333;48.322;14.340;2024-01-10T04:59:45;-5.80;99.90
8591;DHT22;4333;48.322;14.340;2024-01-10T05:02:11;-5.90;99.90
8591;DHT22;4333;48.322;14.340;2024-01-10T05:04:37;-5.80;99.90
8591;DHT22;4333;48.322;14.340;2024-01-10T05:07:03;-5.80;99.90
8591;DHT22;4333;48.322;14.340;2024-01-10T05:09:28;-5.80;99.90
8591;DHT22;4333;48.322;14.340;2024-01-10T05:11:54;-5.90;99.90
8591;DHT22;4333;48.322;14.340;2024-01-10T05:14:22;-5.90;99.90
8591;DHT22;4333;48.322;14.340;2024-01-10T05:16:48;-6.00;99.90
8591;DHT22;4333;48.322;14.340;2024-01-10T05:19:14;-6.00;99.90
8591;DHT22;4333;48.322;14.340;2024-01-10T05:21:42;-6.10;99.90
8591;DHT22;4333;48.322;14.340;2024-01-10T05:24:08;-6.10;99.90
8591;DHT22;4333;48.322;14.340;2024-01-10T05:26:38;-6.00;99.90
8591;DHT22;4333;48.322;14.340;2024-01-10T05:29:04;-6.00;99.90
8591;DHT22;4333;48.322;14.340;2024-01-10T05:31:30;-6.00;99.90
8591;DHT22;4333;48.322;14.340;2024-01-10T05:33:59;-6.10;99.90
8591;DHT22;4333;48.322;14.340;2024-01-10T05:36:24;-6.00;99.90
8591;DHT22;4333;48.322;14.340;2024-01-10T05:38:50;-5.90;99.90
8591;DHT22;4333;48.322;14.340;2024-01-10T05:41:17;-6.00;99.90
8591;DHT22;4333;48.322;14.340;2024-01-10T05:43:42;-5.90;99.90
8591;DHT22;4333;48.322;14.340;2024-01-10T05:46:09;-5.80;99.90
8591;DHT22;4333;48.322;14.340;2024-01-10T05:48:35;-5.80;99.90
8591;DHT22;4333;48.322;14.340;2024-01-10T05:51:01;-5.80;99.90
8591;DHT22;4333;48.322;14.340;2024-01-10T05:53:29;-5.90;99.90
8591;DHT22;4333;48.322;14.340;2024-01-10T05:55:54;-5.90;99.90
8591;DHT22;4333;48.322;14.340;2024-01-10T05:58:20;-6.00;99.90
8591;DHT22;4333;48.322;14.340;2024-01-10T06:00:48;-6.00;99.90
8591;DHT22;4333;48.322;14.340;2024-01-10T06:03:14;-6.10;99.90
8591;DHT22;4333;48.322;14.340;2024-01-10T06:05:40;-6.10;99.90
8591;DHT22;4333;48.322;14.340;2024-01-10T06:08:07;-6.10;99.90
8591;DHT22;4333;48.322;14.340;2024-01-10T06:10:33;-6.10;99.90
8591;DHT22;4333;48.322;14.340;2024-01-10T06:13:00;-6.00;99.90
8591;DHT22;4333;48.322;14.340;2024-01-10T06:15:25;-6.00;99.90
8591;DHT22;4333;48.322;14.340;2024-01-10T06:17:51;-6.00;99.90
8591;DHT22;4333;48.322;14.340;2024-01-10T06:20:17;-6.00;99.90
8591;DHT22;4333;48.322;14.340;2024-01-10T06:22:43;-6.10;99.90
8591;DHT22;4333;48.322;14.340;2024-01-10T06:25:09;-6.10;99.90
8591;DHT22;4333;48.322;14.340;2024-01-10T06:27:35;-6.20;99.90
8591;DHT22;4333;48.322;14.340;2024-01-10T06:30:01;-6.20;99.90
8591;DHT22;4333;48.322;14.340;2024-01-10T06:32:26;-6.20;99.90
8591;DHT22;4333;48.322;14.340;2024-01-10T06:34:52;-6.20;99.90
8591;DHT22;4333;48.322;14.340;2024-01-10T06:37:20;-6.30;99.90
8591;DHT22;4333;48.322;14.340;2024-01-10T06:39:47;-6.20;99.90
8591;DHT22;4333;48.322;14.340;2024-01-10T06:42:13;-6.30;99.90
8591;DHT22;4333;48.322;14.340;2024-01-10T06:44:39;-6.20;99.90
8591;DHT22;4333;48.322;14.340;2024-01-10T06:47:05;-6.20;99.90
8591;DHT22;4333;48.322;14.340;2024-01-10T06:49:30;-6.30;99.90
8591;DHT22;4333;48.322;14.340;2024-01-10T06:51:57;-6.20;99.90
8591;DHT22;4333;48.322;14.340;2024-01-10T06:54:24;-6.10;99.90
8591;DHT22;4333;48.322;14.340;2024-01-10T06:56:49;-6.00;99.90
8591;DHT22;4333;48.322;14.340;2024-01-10T06:59:15;-6.00;99.90
8591;DHT22;4333;48.322;14.340;2024-01-10T07:01:41;-6.00;99.90
8591;DHT22;4333;48.322;14.340;2024-01-10T07:04:06;-6.00;99.90
8591;DHT22;4333;48.322;14.340;2024-01-10T07:06:32;-6.10;99.90
8591;DHT22;4333;48.322;14.340;2024-01-10T07:08:58;-6.20;99.90
8591;DHT22;4333;48.322;14.340;2024-01-10T07:11:24;-6.20;99.90
8591;DHT22;4333;48.322;14.340;2024-01-10T07:13:49;-6.30;99.90
8591;DHT22;4333;48.322;14.340;2024-01-10T07:16:16;-6.30;99.90
8591;DHT22;4333;48.322;14.340;2024-01-10T07:18:45;-6.20;99.90
8591;DHT22;4333;48.322;14.340;2024-01-10T07:21:11;-6.20;99.90
8591;DHT22;4333;48.322;14.340;2024-01-10T07:23:37;-6.10;99.90
8591;DHT22;4333;48.322;14.340;2024-01-10T07:26:06;-6.20;99.90
8591;DHT22;4333;48.322;14.340;2024-01-10T07:28:32;-6.10;99.90
8591;DHT22;4333;48.322;14.340;2024-01-10T07:30:59;-6.10;99.90
8591;DHT22;4333;48.322;14.340;2024-01-10T07:33:29;-6.10;99.90
8591;DHT22;4333;48.322;14.340;2024-01-10T07:36:02;-6.10;99.90
8591;DHT22;4333;48.322;14.340;2024-01-10T07:38:27;-6.10;99.90
8591;DHT22;4333;48.322;14.340;2024-01-10T07:40:54;-6.10;99.90
8591;DHT22;4333;48.322;14.340;2024-01-10T07:43:19;-6.10;99.90
8591;DHT22;4333;48.322;14.340;2024-01-10T07:45:47;-6.10;99.90
8591;DHT22;4333;48.322;14.340;2024-01-10T07:48:13;-6.10;99.90
8591;DHT22;4333;48.322;14.340;2024-01-10T07:50:39;-6.10;99.90
8591;DHT22;4333;48.322;14.340;2024-01-10T07:53:05;-6.10;99.90
8591;DHT22;4333;48.322;14.340;2024-01-10T07:55:31;-6.10;99.90
8591;DHT22;4333;48.322;14.340;2024-01-10T07:57:57;-6.00;99.90
8591;DHT22;4333;48.322;14.340;2024-01-10T08:00:23;-6.00;99.90
8591;DHT22;4333;48.322;14.340;2024-01-10T08:02:50;-6.00;99.90
8591;DHT22;4333;48.322;14.340;2024-01-10T08:05:16;-5.90;99.90
8591;DHT22;4333;48.322;14.340;2024-01-10T08:07:43;-5.90;99.90
8591;DHT22;4333;48.322;14.340;2024-01-10T08:10:10;-5.90;99.90
8591;DHT22;4333;48.322;14.340;2024-01-10T08:12:36;-5.90;99.90
8591;DHT22;4333;48.322;14.340;2024-01-10T08:15:04;-5.80;99.90
8591;DHT22;4333;48.322;14.340;2024-01-10T08:17:32;-5.80;99.90
8591;DHT22;4333;48.322;14.340;2024-01-10T08:19:58;-5.70;99.90
8591;DHT22;4333;48.322;14.340;2024-01-10T08:22:25;-5.70;99.90
8591;DHT22;4333;48.322;14.340;2024-01-10T08:24:51;-5.60;99.90
8591;DHT22;4333;48.322;14.340;2024-01-10T08:27:16;-5.60;99.90
8591;DHT22;4333;48.322;14.340;2024-01-10T08:29:42;-5.60;99.90
8591;DHT22;4333;48.322;14.340;2024-01-10T08:32:08;-5.50;99.90
8591;DHT22;4333;48.322;14.340;2024-01-10T08:34:36;-5.50;99.90
8591;DHT22;4333;48.322;14.340;2024-01-10T08:37:01;-5.40;99.90
8591;DHT22;4333;48.322;14.340;2024-01-10T08:39:27;-5.30;99.90
8591;DHT22;4333;48.322;14.340;2024-01-10T08:41:56;-5.30;99.90
8591;DHT22;4333;48.322;14.340;2024-01-10T08:44:24;-5.30;99.90
8591;DHT22;4333;48.322;14.340;2024-01-10T08:46:50;-5.30;99.90
8591;DHT22;4333;48.322;14.340;2024-01-10T08:49:19;-5.30;99.90
8591;DHT22;4333;48.322;14.340;2024-01-10T08:51:44;-5.10;99.90
8591;DHT22;4333;48.322;14.340;2024-01-10T08:54:12;-4.50;99.90
8591;DHT22;4333;48.322;14.340;2024-01-10T08:56:43;-3.10;99.90
8591;DHT22;4333;48.322;14.340;2024-01-10T08:59:10;-1.50;99.90
8591;DHT22;4333;48.322;14.340;2024-01-10T09:01:36;-0.20;76.90
8591;DHT22;4333;48.322;14.340;2024-01-10T09:04:07;0.40;49.50
8591;DHT22;4333;48.322;14.340;2024-01-10T09:06:33;0.50;33.30
8591;DHT22;4333;48.322;14.340;2024-01-10T09:08:59;0.40;28.80
8591;DHT22;4333;48.322;14.340;2024-01-10T09:11:28;1.00;29.70
8591;DHT22;4333;48.322;14.340;2024-01-10T09:13:54;1.60;24.80
8591;DHT22;4333;48.322;14.340;2024-01-10T09:16:19;1.70;14.00
8591;DHT22;4333;48.322;14.340;2024-01-10T09:18:45;2.10;12.30
8591;DHT22;4333;48.322;14.340;2024-01-10T09:21:15;2.60;7.50
8591;DHT22;4333;48.322;14.340;2024-01-10T09:23:47;2.90;1.00
8591;DHT22;4333;48.322;14.340;2024-01-10T09:26:17;3.30;1.00
8591;DHT22;4333;48.322;14.340;2024-01-10T09:28:43;3.40;1.00
8591;DHT22;4333;48.322;14.340;2024-01-10T09:31:10;3.40;1.00
8591;DHT22;4333;48.322;14.340;2024-01-10T09:33:36;2.90;1.00
8591;DHT22;4333;48.322;14.340;2024-01-10T09:36:02;2.40;1.00
8591;DHT22;4333;48.322;14.340;2024-01-10T09:38:29;2.50;1.00
8591;DHT22;4333;48.322;14.340;2024-01-10T09:40:59;2.50;1.00
8591;DHT22;4333;48.322;14.340;2024-01-10T09:43:28;2.50;1.00
8591;DHT22;4333;48.322;14.340;2024-01-10T09:45:58;2.00;1.00
8591;DHT22;4333;48.322;14.340;2024-01-10T09:48:25;2.00;1.00
8591;DHT22;4333;48.322;14.340;2024-01-10T09:50:51;2.40;1.00
8591;DHT22;4333;48.322;14.340;2024-01-10T09:53:27;2.50;1.00
8591;DHT22;4333;48.322;14.340;2024-01-10T09:55:56;2.40;1.00
8591;DHT22;4333;48.322;14.340;2024-01-10T09:58:26;1.90;1.00
8591;DHT22;4333;48.322;14.340;2024-01-10T10:00:52;1.70;1.00
8591;DHT22;4333;48.322;14.340;2024-01-10T10:03:19;2.00;1.00
8591;DHT22;4333;48.322;14.340;2024-01-10T10:05:45;2.20;1.00
8591;DHT22;4333;48.322;14.340;2024-01-10T10:08:12;2.50;1.00
8591;DHT22;4333;48.322;14.340;2024-01-10T10:10:40;1.80;1.00
8591;DHT22;4333;48.322;14.340;2024-01-10T10:13:10;1.80;1.00
8591;DHT22;4333;48.322;14.340;2024-01-10T10:15:40;1.80;1.00
8591;DHT22;4333;48.322;14.340;2024-01-10T10:18:06;2.10;1.00
8591;DHT22;4333;48.322;14.340;2024-01-10T10:20:39;2.30;1.00
8591;DHT22;4333;48.322;14.340;2024-01-10T10:23:06;2.40;1.00
8591;DHT22;4333;48.322;14.340;2024-01-10T10:25:36;3.00;1.00
8591;DHT22;4333;48.322;14.340;2024-01-10T10:28:04;3.30;1.00
8591;DHT22;4333;48.322;14.340;2024-01-10T10:30:31;2.60;1.00
8591;DHT22;4333;48.322;14.340;2024-01-10T10:32:58;2.40;1.00
8591;DHT22;4333;48.322;14.340;2024-01-10T10:35:23;1.60;1.00
8591;DHT22;4333;48.322;14.340;2024-01-10T10:37:51;1.00;1.00
8591;DHT22;4333;48.322;14.340;2024-01-10T10:40:17;0.90;1.00
8591;DHT22;4333;48.322;14.340;2024-01-10T10:42:48;1.00;1.00
8591;DHT22;4333;48.322;14.340;2024-01-10T10:45:16;0.90;1.00
8591;DHT22;4333;48.322;14.340;2024-01-10T10:47:44;1.40;1.00
8591;DHT22;4333;48.322;14.340;2024-01-10T10:50:20;1.50;1.00
8591;DHT22;4333;48.322;14.340;2024-01-10T10:52:50;1.60;1.00
8591;DHT22;4333;48.322;14.340;2024-01-10T10:55:18;1.70;1.00
8591;DHT22;4333;48.322;14.340;2024-01-10T10:57:45;2.30;1.00
8591;DHT22;4333;48.322;14.340;2024-01-10T11:00:19;1.90;1.00
8591;DHT22;4333;48.322;14.340;2024-01-10T11:02:46;1.90;1.00
8591;DHT22;4333;48.322;14.340;2024-01-10T11:05:12;2.20;1.00
8591;DHT22;4333;48.322;14.340;2024-01-10T11:07:39;2.70;1.00
8591;DHT22;4333;48.322;14.340;2024-01-10T11:10:12;3.10;1.00
8591;DHT22;4333;48.322;14.340;2024-01-10T11:16:13;3.70;1.00
8591;DHT22;4333;48.322;14.340;2024-01-10T11:24:33;3.40;1.00
8591;DHT22;4333;48.322;14.340;2024-01-10T11:29:37;3.00;1.00
8591;DHT22;4333;48.322;14.340;2024-01-10T11:32:05;3.00;1.00
8591;DHT22;4333;48.322;14.340;2024-01-10T11:34:31;3.10;1.00
8591;DHT22;4333;48.322;14.340;2024-01-10T11:37:11;3.00;1.00
8591;DHT22;4333;48.322;14.340;2024-01-10T11:39:41;2.40;1.00
8591;DHT22;4333;48.322;14.340;2024-01-10T11:42:08;1.60;1.00
8591;DHT22;4333;48.322;14.340;2024-01-10T11:44:49;1.40;1.00
8591;DHT22;4333;48.322;14.340;2024-01-10T11:47:19;2.00;1.00
8591;DHT22;4333;48.322;14.340;2024-01-10T11:49:56;2.60;1.00
8591;DHT22;4333;48.322;14.340;2024-01-10T11:52:32;2.80;1.00
8591;DHT22;4333;48.322;14.340;2024-01-10T11:54:58;3.40;1.00
8591;DHT22;4333;48.322;14.340;2024-01-10T11:57:29;3.60;1.00
8591;DHT22;4333;48.322;14.340;2024-01-10T11:59:57;3.90;1.00
8591;DHT22;4333;48.322;14.340;2024-01-10T12:02:25;3.30;1.00
8591;DHT22;4333;48.322;14.340;2024-01-10T12:04:53;3.00;1.00
8591;DHT22;4333;48.322;14.340;2024-01-10T12:07:19;3.10;1.00
8591;DHT22;4333;48.322;14.340;2024-01-10T12:09:48;3.30;1.00
8591;DHT22;4333;48.322;14.340;2024-01-10T12:12:14;3.80;1.00
8591;DHT22;4333;48.322;14.340;2024-01-10T12:14:41;3.60;1.00
8591;DHT22;4333;48.322;14.340;2024-01-10T12:17:07;3.50;1.00
8591;DHT22;4333;48.322;14.340;2024-01-10T12:19:35;2.70;1.00
8591;DHT22;4333;48.322;14.340;2024-01-10T12:22:03;2.80;1.00
8591;DHT22;4333;48.322;14.340;2024-01-10T12:24:30;3.00;1.00
8591;DHT22;4333;48.322;14.340;2024-01-10T12:26:56;3.10;1.00
8591;DHT22;4333;48.322;14.340;2024-01-10T12:29:22;2.60;1.00
8591;DHT22;4333;48.322;14.340;2024-01-10T12:31:53;2.50;1.00
8591;DHT22;4333;48.322;14.340;2024-01-10T12:34:20;3.20;1.00
8591;DHT22;4333;48.322;14.340;2024-01-10T12:36:47;3.40;1.00
8591;DHT22;4333;48.322;14.340;2024-01-10T12:39:15;3.50;1.00
8591;DHT22;4333;48.322;14.340;2024-01-10T12:41:43;4.00;1.00
8591;DHT22;4333;48.322;14.340;2024-01-10T12:44:10;4.40;1.00
8591;DHT22;4333;48.322;14.340;2024-01-10T12:46:48;4.40;1.00
8591;DHT22;4333;48.322;14.340;2024-01-10T12:49:17;4.40;1.00
8591;DHT22;4333;48.322;14.340;2024-01-10T12:51:43;4.50;1.00
8591;DHT22;4333;48.322;14.340;2024-01-10T12:54:09;4.60;1.00
8591;DHT22;4333;48.322;14.340;2024-01-10T12:56:34;4.60;1.00
8591;DHT22;4333;48.322;14.340;2024-01-10T12:59:00;4.50;1.00
8591;DHT22;4333;48.322;14.340;2024-01-10T13:01:26;4.50;1.00
8591;DHT22;4333;48.322;14.340;2024-01-10T13:03:52;4.60;1.00
8591;DHT22;4333;48.322;14.340;2024-01-10T13:06:18;4.40;1.00
8591;DHT22;4333;48.322;14.340;2024-01-10T13:08:48;4.50;1.00
8591;DHT22;4333;48.322;14.340;2024-01-10T13:11:14;4.70;1.00
8591;DHT22;4333;48.322;14.340;2024-01-10T13:13:41;4.80;1.00
8591;DHT22;4333;48.322;14.340;2024-01-10T13:16:08;4.70;1.00
8591;DHT22;4333;48.322;14.340;2024-01-10T13:18:38;4.70;1.00
8591;DHT22;4333;48.322;14.340;2024-01-10T13:21:04;4.90;1.00
8591;DHT22;4333;48.322;14.340;2024-01-10T13:23:30;4.80;1.00
8591;DHT22;4333;48.322;14.340;2024-01-10T13:25:56;4.60;1.00
8591;DHT22;4333;48.322;14.340;2024-01-10T13:28:21;4.30;1.00
8591;DHT22;4333;48.322;14.340;2024-01-10T13:30:47;4.10;1.00
8591;DHT22;4333;48.322;14.340;2024-01-10T13:33:13;4.10;1.00
8591;DHT22;4333;48.322;14.340;2024-01-10T13:35:42;3.80;1.00
8591;DHT22;4333;48.322;14.340;2024-01-10T13:38:11;3.40;1.00
8591;DHT22;4333;48.322;14.340;2024-01-10T13:40:36;3.70;1.00
8591;DHT22;4333;48.322;14.340;2024-01-10T13:43:04;4.00;1.00
8591;DHT22;4333;48.322;14.340;2024-01-10T13:45:30;4.20;1.00
8591;DHT22;4333;48.322;14.340;2024-01-10T13:47:58;4.10;1.00
8591;DHT22;4333;48.322;14.340;2024-01-10T13:50:25;3.70;1.00
8591;DHT22;4333;48.322;14.340;2024-01-10T13:52:52;3.10;1.00
8591;DHT22;4333;48.322;14.340;2024-01-10T13:55:19;2.70;1.00
8591;DHT22;4333;48.322;14.340;2024-01-10T13:57:45;2.40;1.00
8591;DHT22;4333;48.322;14.340;2024-01-10T14:00:12;2.60;1.00
8591;DHT22;4333;48.322;14.340;2024-01-10T14:02:41;2.80;1.00
8591;DHT22;4333;48.322;14.340;2024-01-10T14:05:07;3.30;1.00
8591;DHT22;4333;48.322;14.340;2024-01-10T14:07:34;3.40;1.00
8591;DHT22;4333;48.322;14.340;2024-01-10T14:09:59;3.40;1.00
8591;DHT22;4333;48.322;14.340;2024-01-10T14:12:30;3.60;1.00
8591;DHT22;4333;48.322;14.340;2024-01-10T14:14:55;3.90;1.00
8591;DHT22;4333;48.322;14.340;2024-01-10T14:17:22;4.00;1.00
8591;DHT22;4333;48.322;14.340;2024-01-10T14:19:51;4.20;1.00
8591;DHT22;4333;48.322;14.340;2024-01-10T14:22:17;4.30;1.00
8591;DHT22;4333;48.322;14.340;2024-01-10T14:24:45;4.40;1.00
8591;DHT22;4333;48.322;14.340;2024-01-10T14:27:11;4.30;1.00
8591;DHT22;4333;48.322;14.340;2024-01-10T14:29:36;4.20;1.00
8591;DHT22;4333;48.322;14.340;2024-01-10T14:32:02;4.20;1.00
8591;DHT22;4333;48.322;14.340;2024-01-10T14:34:29;4.10;1.00
8591;DHT22;4333;48.322;14.340;2024-01-10T14:36:55;4.20;1.00
8591;DHT22;4333;48.322;14.340;2024-01-10T14:39:21;4.20;1.00
8591;DHT22;4333;48.322;14.340;2024-01-10T14:41:46;4.20;1.00
8591;DHT22;4333;48.322;14.340;2024-01-10T14:44:12;4.10;1.00
8591;DHT22;4333;48.322;14.340;2024-01-10T14:46:39;3.90;1.00
8591;DHT22;4333;48.322;14.340;2024-01-10T14:49:07;3.80;1.00
8591;DHT22;4333;48.322;14.340;2024-01-10T14:51:33;3.70;1.00
8591;DHT22;4333;48.322;14.340;2024-01-10T14:53:59;3.60;1.00
8591;DHT22;4333;48.322;14.340;2024-01-10T14:56:27;3.50;1.00
8591;DHT22;4333;48.322;14.340;2024-01-10T14:58:52;3.40;1.00
8591;DHT22;4333;48.322;14.340;2024-01-10T15:01:20;3.20;1.00
8591;DHT22;4333;48.322;14.340;2024-01-10T15:03:46;3.10;2.40
8591;DHT22;4333;48.322;14.340;2024-01-10T15:06:19;3.00;10.80
8591;DHT22;4333;48.322;14.340;2024-01-10T15:08:48;2.70;12.40
8591;DHT22;4333;48.322;14.340;2024-01-10T15:11:13;2.30;9.50
8591;DHT22;4333;48.322;14.340;2024-01-10T15:13:39;1.60;10.60
8591;DHT22;4333;48.322;14.340;2024-01-10T15:16:08;1.00;17.00
8591;DHT22;4333;48.322;14.340;2024-01-10T15:18:35;0.70;25.00
8591;DHT22;4333;48.322;14.340;2024-01-10T15:21:01;0.40;29.90
8591;DHT22;4333;48.322;14.340;2024-01-10T15:23:26;0.20;37.10
8591;DHT22;4333;48.322;14.340;2024-01-10T15:25:54;0.20;40.40
8591;DHT22;4333;48.322;14.340;2024-01-10T15:28:20;0.00;41.70
8591;DHT22;4333;48.322;14.340;2024-01-10T15:30:46;-0.10;44.90
8591;DHT22;4333;48.322;14.340;2024-01-10T15:33:13;-0.30;49.30
8591;DHT22;4333;48.322;14.340;2024-01-10T15:35:43;-0.40;50.10
8591;DHT22;4333;48.322;14.340;2024-01-10T15:38:09;-0.40;53.90
8591;DHT22;4333;48.322;14.340;2024-01-10T15:40:34;-0.50;49.90
8591;DHT22;4333;48.322;14.340;2024-01-10T15:43:00;-0.60;50.70
8591;DHT22;4333;48.322;14.340;2024-01-10T15:45:27;-0.60;50.20
8591;DHT22;4333;48.322;14.340;2024-01-10T15:47:53;-0.70;52.80
8591;DHT22;4333;48.322;14.340;2024-01-10T15:50:19;-0.90;58.90
8591;DHT22;4333;48.322;14.340;2024-01-10T15:52:45;-1.10;61.50
8591;DHT22;4333;48.322;14.340;2024-01-10T15:55:14;-1.20;63.70
8591;DHT22;4333;48.322;14.340;2024-01-10T15:57:40;-1.40;69.40
8591;DHT22;4333;48.322;14.340;2024-01-10T16:00:06;-1.50;72.00
8591;DHT22;4333;48.322;14.340;2024-01-10T16:02:32;-1.50;73.00
8591;DHT22;4333;48.322;14.340;2024-01-10T16:04:59;-1.40;75.80
8591;DHT22;4333;48.322;14.340;2024-01-10T16:07:25;-1.40;78.50